createdAt,value
2019-02-08T00:02:26.644Z,0.60
2019-02-08T00:04:59.094Z,0.56
2019-02-08T00:07:33.256Z,0.68
2019-02-08T00:10:07.340Z,0.65
2019-02-08T00:12:38.574Z,0.68
2019-02-08T00:15:13.056Z,0.56
2019-02-08T00:17:45.954Z,0.72
2019-02-08T00:20:17.300Z,0.75
2019-02-08T00:22:52.814Z,0.72
2019-02-08T00:25:27.317Z,0.79
2019-02-08T00:27:58.963Z,0.78
2019-02-08T00:30:33.911Z,0.84
2019-02-08T00:33:06.760Z,0.70
2019-02-08T00:35:40.183Z,0.78
2019-02-08T00:38:14.162Z,0.83
2019-02-08T00:40:47.209Z,0.91
2019-02-08T00:43:19.210Z,0.88
2019-02-08T00:45:50.492Z,1.00
2019-02-08T00:48:24.272Z,0.95
2019-02-08T00:50:58.272Z,1.00
2019-02-08T00:53:33.484Z,0.91
2019-02-08T00:56:06.700Z,0.86
2019-02-08T00:58:39.944Z,0.76
2019-02-08T01:01:13.341Z,0.80
2019-02-08T01:03:47.717Z,0.91
2019-02-08T01:06:20.217Z,1.11
2019-02-08T01:08:53.341Z,0.98
2019-02-08T01:11:27.332Z,1.00
2019-02-08T01:14:00.321Z,1.06
2019-02-08T01:16:33.338Z,1.16
2019-02-08T01:19:05.355Z,1.06
2019-02-08T01:21:36.658Z,1.32
2019-02-08T01:24:07.974Z,1.23
2019-02-08T01:26:39.542Z,1.17
2019-02-08T01:29:12.506Z,1.15
2019-02-08T01:31:48.090Z,1.16
2019-02-08T01:34:19.459Z,1.24
2019-02-08T01:36:53.315Z,1.25
2019-02-08T01:39:24.528Z,1.29
2019-02-08T01:41:58.511Z,1.21
2019-02-08T01:44:31.487Z,1.21
2019-02-08T01:47:03.380Z,1.31
2019-02-08T01:49:36.538Z,1.34
2019-02-08T01:52:12.072Z,1.23
2019-02-08T01:54:45.104Z,1.27
2019-02-08T01:57:16.319Z,1.24
2019-02-08T01:59:49.121Z,1.43
2019-02-08T02:02:21.542Z,1.31
2019-02-08T02:04:55.564Z,1.30
2019-02-08T02:07:26.870Z,1.36
2019-02-08T02:09:59.850Z,1.26
2019-02-08T02:12:33.476Z,1.29
2019-02-08T02:15:07.767Z,1.33
2019-02-08T02:17:39.247Z,1.39
2019-02-08T02:20:13.167Z,1.38
2019-02-08T02:22:46.712Z,1.46
2019-02-08T02:25:22.306Z,1.69
2019-02-08T02:27:54.753Z,1.84
2019-02-08T02:30:32.701Z,1.81
2019-02-08T02:33:07.485Z,1.76
2019-02-08T02:35:41.507Z,2.02
2019-02-08T02:38:13.894Z,2.23
2019-02-08T02:40:45.797Z,2.22
2019-02-08T02:43:17.769Z,2.05
2019-02-08T02:45:49.506Z,2.26
2019-02-08T02:48:20.746Z,2.01
2019-02-08T02:50:53.166Z,2.25
2019-02-08T02:53:25.934Z,1.97
2019-02-08T02:55:59.956Z,1.98
2019-02-08T02:58:33.146Z,1.98
2019-02-08T03:01:06.486Z,2.02
2019-02-08T03:03:39.909Z,1.94
2019-02-08T03:06:12.516Z,1.91
2019-02-08T03:08:43.781Z,1.88
2019-02-08T03:11:19.486Z,1.86
2019-02-08T03:17:15.022Z,1.89
2019-02-08T03:19:47.844Z,1.78
2019-02-08T03:22:19.092Z,1.79
2019-02-08T03:24:50.341Z,1.78
2019-02-08T03:27:25.130Z,1.90
2019-02-08T03:29:58.073Z,1.88
2019-02-08T03:32:32.049Z,1.76
2019-02-08T03:35:07.565Z,1.79
2019-02-08T03:37:39.919Z,1.87
2019-02-08T03:40:15.789Z,1.87
2019-02-08T03:42:49.925Z,1.74
2019-02-08T03:45:23.402Z,1.69
2019-02-08T03:47:56.088Z,1.63
2019-02-08T03:50:30.349Z,1.66
2019-02-08T03:53:04.284Z,1.62
2019-02-08T03:55:36.877Z,1.52
2019-02-08T03:58:10.162Z,1.50
2019-02-08T04:00:49.901Z,1.56
2019-02-08T04:03:23.038Z,1.50
2019-02-08T04:05:58.632Z,1.40
2019-02-08T04:08:31.077Z,1.33
2019-02-08T04:11:02.479Z,1.31
2019-02-08T04:13:36.263Z,1.40
2019-02-08T04:16:10.025Z,1.38
2019-02-08T04:18:42.522Z,1.41
2019-02-08T04:21:15.223Z,1.39
2019-02-08T04:23:50.253Z,1.33
2019-02-08T04:26:23.288Z,1.38
2019-02-08T04:28:58.127Z,1.38
2019-02-08T04:31:30.348Z,1.44
2019-02-08T04:34:01.925Z,1.39
2019-02-08T04:36:34.745Z,1.27
2019-02-08T04:39:08.755Z,1.45
2019-02-08T04:41:42.513Z,1.30
2019-02-08T04:44:16.259Z,1.17
2019-02-08T04:46:49.675Z,1.18
2019-02-08T04:49:22.525Z,1.21
2019-02-08T04:51:53.748Z,1.25
2019-02-08T04:54:24.954Z,1.27
2019-02-08T04:57:13.922Z,1.17
2019-02-08T04:59:45.238Z,1.30
2019-02-08T05:02:19.932Z,1.19
2019-02-08T05:04:53.994Z,1.23
2019-02-08T05:07:26.389Z,1.17
2019-02-08T05:10:00.554Z,1.23
2019-02-08T05:12:31.803Z,1.32
2019-02-08T05:15:05.069Z,1.37
2019-02-08T05:17:38.080Z,1.50
2019-02-08T05:20:12.250Z,1.50
2019-02-08T05:22:46.336Z,1.51
2019-02-08T05:25:18.611Z,1.37
2019-02-08T05:27:54.154Z,1.70
2019-02-08T05:30:27.709Z,1.57
2019-02-08T05:33:01.692Z,1.59
2019-02-08T05:35:35.546Z,1.48
2019-02-08T05:38:09.588Z,1.64
2019-02-08T05:40:43.601Z,1.58
2019-02-08T05:43:14.810Z,1.59
2019-02-08T05:45:46.085Z,1.56
2019-02-08T05:48:21.354Z,1.56
2019-02-08T05:50:53.447Z,1.68
2019-02-08T05:53:26.044Z,1.84
2019-02-08T05:56:00.881Z,1.68
2019-02-08T05:58:32.124Z,1.59
2019-02-08T06:01:06.725Z,1.62
2019-02-08T06:03:40.639Z,1.61
2019-02-08T06:06:14.612Z,1.60
2019-02-08T06:08:50.780Z,1.65
2019-02-08T06:11:23.713Z,1.76
2019-02-08T06:13:59.327Z,1.70
2019-02-08T06:16:31.570Z,1.81
2019-02-08T06:19:06.346Z,1.75
2019-02-08T06:21:37.643Z,1.73
2019-02-08T06:24:09.804Z,1.70
2019-02-08T06:26:42.735Z,1.85
2019-02-08T06:29:16.908Z,1.80
2019-02-08T06:31:48.515Z,1.82
2019-02-08T06:34:19.744Z,1.82
2019-02-08T06:36:53.834Z,1.86
2019-02-08T06:39:25.172Z,2.04
2019-02-08T06:41:58.801Z,1.89
2019-02-08T06:44:31.980Z,1.76
2019-02-08T06:47:04.959Z,1.91
2019-02-08T06:49:37.404Z,1.86
2019-02-08T06:52:11.583Z,1.92
2019-02-08T06:54:42.828Z,1.91
2019-02-08T06:57:30.737Z,1.84
2019-02-08T07:00:10.824Z,1.82
2019-02-08T07:03:12.538Z,1.85
2019-02-08T07:06:01.623Z,1.85
2019-02-08T07:08:41.313Z,1.90
2019-02-08T07:11:22.189Z,1.85
2019-02-08T07:14:22.435Z,1.87
2019-02-08T07:17:22.011Z,1.91
2019-02-08T07:20:15.609Z,2.08
2019-02-08T07:23:04.424Z,2.04
2019-02-08T07:26:01.973Z,2.02
2019-02-08T07:28:48.544Z,1.97
2019-02-08T07:31:45.505Z,1.98
2019-02-08T07:34:34.818Z,1.98
2019-02-08T07:37:26.147Z,2.14
2019-02-08T07:40:18.492Z,2.34
2019-02-08T07:43:10.141Z,2.23
2019-02-08T07:46:08.326Z,2.20
2019-02-08T07:48:54.871Z,2.15
2019-02-08T07:51:56.226Z,2.12
2019-02-08T07:54:42.249Z,2.35
2019-02-08T07:57:24.088Z,2.53
2019-02-08T08:00:26.505Z,2.50
2019-02-08T08:03:20.948Z,2.71
2019-02-08T08:06:13.275Z,2.66
2019-02-08T08:09:08.126Z,2.81
2019-02-08T08:11:55.599Z,2.79
2019-02-08T08:14:45.858Z,3.03
2019-02-08T08:17:39.121Z,3.13
2019-02-08T08:20:34.173Z,3.27
2019-02-08T08:23:15.017Z,3.05
2019-02-08T08:26:15.466Z,3.27
2019-02-08T08:29:02.280Z,3.47
2019-02-08T08:31:50.000Z,3.61
2019-02-08T08:34:55.662Z,3.78
2019-02-08T08:38:04.368Z,3.94
2019-02-08T08:41:19.787Z,4.00
2019-02-08T08:44:34.816Z,4.06
2019-02-08T08:47:56.533Z,4.32
2019-02-08T08:51:21.971Z,4.40
2019-02-08T08:54:36.804Z,4.72
2019-02-08T08:57:43.243Z,4.60
2019-02-08T09:00:35.551Z,4.96
2019-02-08T09:03:43.227Z,4.79
2019-02-08T09:06:53.230Z,4.27
2019-02-08T09:10:23.414Z,4.13
2019-02-08T09:13:21.736Z,3.93
2019-02-08T09:16:24.870Z,3.90
2019-02-08T09:19:39.902Z,3.81
2019-02-08T09:23:06.722Z,3.78
2019-02-08T09:25:57.525Z,3.88
2019-02-08T09:29:23.763Z,3.91
2019-02-08T09:32:38.366Z,4.01
2019-02-08T09:36:00.957Z,3.89
2019-02-08T09:39:16.878Z,3.77
2019-02-08T09:42:49.807Z,3.90
2019-02-08T09:46:02.299Z,3.90
2019-02-08T09:49:23.517Z,3.90
2019-02-08T09:52:55.719Z,4.04
2019-02-08T09:56:06.185Z,4.09
2019-02-08T09:59:13.188Z,4.09
2019-02-08T10:02:31.806Z,4.26
2019-02-08T10:05:41.468Z,4.29
2019-02-08T10:08:57.486Z,4.33
2019-02-08T10:12:22.544Z,4.41
2019-02-08T10:15:49.958Z,4.54
2019-02-08T10:18:55.759Z,4.70
2019-02-08T10:22:05.568Z,5.27
2019-02-08T10:25:40.196Z,6.11
2019-02-08T10:28:50.158Z,6.95
2019-02-08T10:32:17.706Z,7.43
2019-02-08T10:35:21.589Z,6.63
2019-02-08T10:38:32.683Z,6.46
2019-02-08T10:41:42.629Z,6.88
2019-02-08T10:45:13.288Z,7.41
2019-02-08T10:48:36.430Z,7.83
2019-02-08T10:51:53.319Z,7.93
2019-02-08T10:55:00.852Z,7.35
2019-02-08T10:58:28.338Z,6.70
2019-02-08T11:01:45.967Z,7.86
2019-02-08T11:05:04.526Z,8.02
2019-02-08T11:08:13.629Z,8.89
2019-02-08T11:11:23.512Z,9.02
2019-02-08T11:14:44.560Z,8.33
2019-02-08T11:17:58.553Z,9.20
2019-02-08T11:20:32.134Z,9.21
2019-02-08T11:23:05.254Z,8.93
2019-02-08T11:25:37.282Z,9.16
2019-02-08T11:28:08.607Z,9.48
2019-02-08T11:30:39.801Z,9.94
2019-02-08T11:33:13.311Z,9.85
2019-02-08T11:35:47.151Z,9.58
2019-02-08T11:38:25.069Z,9.46
2019-02-08T11:40:58.321Z,10.40
2019-02-08T11:43:29.693Z,11.04
2019-02-08T11:46:03.203Z,12.24
2019-02-08T11:48:36.020Z,11.73
2019-02-08T11:51:08.222Z,11.19
2019-02-08T11:53:41.777Z,10.72
2019-02-08T11:56:13.427Z,11.99
2019-02-08T11:58:47.284Z,12.13
2019-02-08T12:01:19.655Z,11.07
2019-02-08T12:03:55.190Z,9.84
2019-02-08T12:06:29.157Z,10.51
2019-02-08T12:09:01.350Z,9.39
2019-02-08T12:11:34.376Z,9.36
2019-02-08T12:14:09.933Z,8.91
2019-02-08T12:16:41.119Z,10.28
2019-02-08T12:19:12.588Z,10.73
2019-02-08T12:21:43.876Z,10.15
2019-02-08T12:24:15.101Z,11.39
2019-02-08T12:26:46.442Z,9.94
2019-02-08T12:29:19.428Z,10.00
2019-02-08T12:31:53.480Z,11.72
2019-02-08T12:34:27.256Z,12.67
2019-02-08T12:37:01.321Z,11.94
2019-02-08T12:39:35.313Z,11.80
2019-02-08T12:42:06.532Z,11.00
2019-02-08T12:44:37.823Z,10.87
2019-02-08T12:47:13.172Z,10.87
2019-02-08T12:49:45.390Z,10.27
2019-02-08T12:52:19.431Z,10.25
2019-02-08T12:54:53.444Z,10.40
2019-02-08T12:57:28.954Z,10.98
2019-02-08T13:00:01.676Z,10.36
2019-02-08T13:02:36.181Z,10.11
2019-02-08T13:05:12.198Z,9.68
2019-02-08T13:07:43.633Z,9.93
2019-02-08T13:10:19.247Z,9.82
2019-02-08T13:12:52.484Z,9.69
2019-02-08T13:15:28.847Z,9.80
2019-02-08T13:18:03.114Z,9.84
2019-02-08T13:20:35.874Z,9.41
2019-02-08T13:23:07.100Z,8.95
2019-02-08T13:25:38.378Z,9.10
2019-02-08T13:28:12.532Z,9.35
2019-02-08T13:30:45.670Z,9.28
2019-02-08T13:33:16.919Z,9.67
2019-02-08T13:35:50.789Z,9.49
2019-02-08T13:38:24.641Z,9.87
2019-02-08T13:40:58.640Z,10.51
2019-02-08T13:43:29.946Z,10.60
2019-02-08T13:46:01.132Z,10.82
2019-02-08T13:48:34.850Z,10.96
2019-02-08T13:51:06.177Z,10.63
2019-02-08T13:53:37.620Z,10.54
2019-02-08T13:56:10.771Z,11.13
2019-02-08T13:58:43.858Z,10.92
2019-02-08T14:01:15.985Z,11.01
2019-02-08T14:03:50.226Z,10.16
2019-02-08T14:06:25.287Z,10.12
2019-02-08T14:08:59.419Z,10.62
2019-02-08T14:11:33.447Z,11.75
2019-02-08T14:14:06.226Z,12.33
2019-02-08T14:16:38.313Z,12.60
2019-02-08T14:19:11.217Z,13.62
2019-02-08T14:21:45.415Z,13.71
2019-02-08T14:24:20.458Z,14.53
2019-02-08T14:26:54.528Z,15.57
2019-02-08T14:29:26.706Z,14.62
2019-02-08T14:31:58.557Z,13.89
2019-02-08T14:34:30.863Z,14.92
2019-02-08T14:37:04.776Z,16.71
2019-02-08T14:39:36.012Z,16.08
2019-02-08T14:42:07.717Z,15.87
2019-02-08T14:44:40.706Z,16.92
2019-02-08T14:47:12.373Z,17.14
2019-02-08T14:49:46.031Z,17.12
2019-02-08T14:52:17.236Z,16.84
2019-02-08T14:54:51.073Z,17.05
2019-02-08T14:57:25.104Z,15.40
2019-02-08T14:59:59.228Z,13.86
2019-02-08T15:02:30.883Z,14.41
2019-02-08T15:05:08.287Z,14.75
2019-02-08T15:07:40.996Z,14.33
2019-02-08T15:10:20.148Z,12.47
2019-02-08T15:12:51.987Z,12.14
2019-02-08T15:15:26.538Z,12.74
2019-02-08T15:18:01.869Z,12.83
2019-02-08T15:20:34.249Z,13.22
2019-02-08T15:23:08.383Z,12.95
2019-02-08T15:25:39.679Z,11.76
2019-02-08T15:28:13.272Z,10.92
2019-02-08T15:30:47.301Z,10.09
2019-02-08T15:33:20.091Z,8.97
2019-02-08T15:35:52.243Z,8.05
2019-02-08T15:38:23.452Z,7.85
2019-02-08T15:40:57.493Z,7.49
2019-02-08T15:43:31.008Z,7.14
2019-02-08T15:46:04.431Z,6.57
2019-02-08T15:48:36.190Z,6.31
2019-02-08T15:51:12.693Z,6.37
2019-02-08T15:53:44.289Z,5.92
2019-02-08T15:56:18.751Z,5.95
2019-02-08T15:58:50.289Z,6.01
2019-02-08T16:01:24.210Z,5.83
2019-02-08T16:03:56.841Z,5.87
2019-02-08T16:06:30.367Z,5.58
2019-02-08T16:09:01.608Z,5.40
2019-02-08T16:11:35.351Z,5.23
2019-02-08T16:14:08.112Z,5.28
2019-02-08T16:16:41.453Z,5.21
2019-02-08T16:19:14.529Z,5.06
2019-02-08T16:21:45.720Z,5.06
2019-02-08T16:24:18.378Z,4.80
2019-02-08T16:26:52.360Z,4.63
2019-02-08T16:29:26.391Z,4.60
2019-02-08T16:32:00.384Z,4.52
2019-02-08T16:34:31.580Z,4.03
2019-02-08T16:37:05.573Z,3.96
2019-02-08T16:39:36.744Z,4.19
2019-02-08T16:42:08.016Z,4.02
2019-02-08T16:44:41.409Z,3.93
2019-02-08T16:47:13.749Z,3.87
2019-02-08T16:49:46.420Z,3.37
2019-02-08T16:52:20.723Z,3.06
2019-02-08T16:54:54.712Z,3.20
2019-02-08T16:57:28.558Z,3.25
2019-02-08T17:00:01.386Z,3.29
2019-02-08T17:02:34.862Z,3.09
2019-02-08T17:05:11.674Z,3.30
2019-02-08T17:07:44.687Z,3.07
2019-02-08T17:10:18.726Z,2.86
2019-02-08T17:12:52.896Z,2.95
2019-02-08T17:15:27.006Z,2.99
2019-02-08T17:18:00.144Z,2.99
2019-02-08T17:20:36.685Z,3.01
2019-02-08T17:23:09.052Z,2.95
2019-02-08T17:25:42.511Z,2.88
2019-02-08T17:28:34.615Z,2.81
2019-02-08T17:31:07.710Z,2.74
2019-02-08T17:33:41.648Z,2.74
2019-02-08T17:36:14.888Z,2.55
2019-02-08T17:38:48.643Z,2.31
2019-02-08T17:41:22.433Z,2.49
2019-02-08T17:43:57.603Z,2.43
2019-02-08T17:46:31.807Z,2.45
2019-02-08T17:49:03.149Z,2.51
2019-02-08T17:51:37.009Z,2.68
2019-02-08T17:54:10.827Z,2.56
2019-02-08T17:56:44.917Z,2.41
2019-02-08T17:59:17.779Z,2.30
2019-02-08T18:01:49.792Z,2.32
2019-02-08T18:04:25.189Z,2.24
2019-02-08T18:06:57.816Z,2.34
2019-02-08T18:09:31.047Z,2.29
2019-02-08T18:12:05.049Z,2.35
2019-02-08T18:14:37.864Z,1.94
2019-02-08T18:17:10.325Z,1.70
2019-02-08T18:19:44.033Z,1.85
2019-02-08T18:22:15.291Z,1.90
2019-02-08T18:24:48.994Z,1.88
2019-02-08T18:27:24.535Z,1.85
2019-02-08T18:29:57.018Z,1.70
2019-02-08T18:32:31.004Z,1.41
2019-02-08T18:35:04.289Z,1.56
2019-02-08T18:37:35.531Z,1.65
2019-02-08T18:40:07.789Z,1.57
2019-02-08T18:42:42.071Z,1.78
2019-02-08T18:45:19.694Z,1.59
2019-02-08T18:47:51.046Z,1.44
2019-02-08T18:50:27.373Z,1.36
2019-02-08T18:52:59.190Z,1.36
2019-02-08T18:55:33.198Z,1.35
2019-02-08T18:58:04.879Z,1.34
2019-02-08T19:00:40.481Z,1.37
2019-02-08T19:03:22.422Z,1.42
2019-02-08T19:06:01.106Z,1.40
2019-02-08T19:08:32.706Z,1.36
2019-02-08T19:11:06.296Z,1.29
2019-02-08T19:13:38.270Z,0.90
2019-02-08T19:16:11.155Z,0.77
2019-02-08T19:18:45.521Z,0.92
2019-02-08T19:21:19.225Z,0.93
2019-02-08T19:23:54.492Z,0.85
2019-02-08T19:26:27.279Z,0.94
2019-02-08T19:29:02.778Z,0.88
2019-02-08T19:31:35.321Z,0.93
2019-02-08T19:34:10.847Z,0.93
2019-02-08T19:36:43.341Z,1.03
2019-02-08T19:39:14.611Z,1.14
2019-02-08T19:41:48.192Z,1.00
2019-02-08T19:44:22.276Z,0.96
2019-02-08T19:46:58.010Z,0.91
2019-02-08T19:49:30.227Z,0.81
2019-02-08T19:52:04.174Z,0.87
2019-02-08T19:54:37.645Z,0.72
2019-02-08T19:57:14.683Z,0.80
2019-02-08T19:59:47.302Z,0.76
2019-02-08T20:02:19.447Z,0.65
2019-02-08T20:04:53.444Z,0.73
2019-02-08T20:07:26.755Z,0.57
2019-02-08T20:09:58.296Z,0.63
2019-02-08T20:12:32.263Z,0.63
2019-02-08T20:15:07.718Z,0.71
2019-02-08T20:17:41.458Z,0.80
2019-02-08T20:20:14.416Z,0.82
2019-02-08T20:22:45.656Z,0.73
2019-02-08T20:25:26.414Z,0.78
2019-02-08T20:27:59.621Z,0.71
2019-02-08T20:30:33.701Z,0.72
2019-02-08T20:33:08.054Z,0.67
2019-02-08T20:35:43.144Z,0.49
2019-02-08T20:38:15.641Z,0.53
2019-02-08T20:40:49.858Z,0.42
2019-02-08T20:43:23.618Z,0.34
2019-02-08T20:45:54.851Z,0.22
2019-02-08T20:48:28.448Z,0.39
2019-02-08T20:51:02.577Z,0.44
2019-02-08T20:53:34.773Z,0.42
2019-02-08T20:56:07.783Z,0.39
2019-02-08T20:58:49.810Z,0.45
2019-02-08T21:01:15.651Z,0.41
2019-02-08T21:03:47.654Z,0.46
2019-02-08T21:06:24.213Z,0.55
2019-02-08T21:08:57.782Z,0.53
2019-02-08T21:11:31.703Z,0.52
2019-02-08T21:14:05.621Z,0.36
2019-02-08T21:16:38.069Z,0.35
2019-02-08T21:19:12.910Z,0.40
2019-02-08T21:21:45.663Z,0.43
2019-02-08T21:24:18.796Z,0.33
2019-02-08T21:26:51.042Z,0.24
2019-02-08T21:29:24.473Z,0.26
2019-02-08T21:31:58.091Z,0.20
2019-02-08T21:34:31.702Z,0.28
2019-02-08T21:37:07.443Z,0.26
2019-02-08T21:39:39.089Z,0.23
2019-02-08T21:42:10.994Z,0.17
2019-02-08T21:44:42.224Z,0.10
2019-02-08T21:47:15.861Z,0.10
2019-02-08T21:49:47.775Z,0.08
2019-02-08T21:52:20.681Z,0.03
2019-02-08T21:54:51.978Z,0.04
2019-02-08T21:57:25.731Z,0.03
2019-02-08T21:59:56.938Z,0.00
2019-02-08T22:02:28.148Z,0.02
2019-02-08T22:05:01.078Z,0.06
2019-02-08T22:07:34.845Z,0.05
2019-02-08T22:10:07.822Z,0.05
2019-02-08T22:12:40.719Z,0.07
2019-02-08T22:15:18.579Z,0.03
2019-02-08T22:17:51.999Z,0.04
2019-02-08T22:20:26.399Z,0.10
2019-02-08T22:22:59.945Z,0.07
2019-02-08T22:25:33.595Z,0.00
2019-02-08T22:28:08.862Z,0.06
2019-02-08T22:30:43.757Z,-0.03
2019-02-08T22:33:14.961Z,0.02
2019-02-08T22:35:47.978Z,0.09
2019-02-08T22:38:21.701Z,-0.14
2019-02-08T22:40:54.113Z,-0.03
2019-02-08T22:43:25.320Z,-0.06
2019-02-08T22:45:56.533Z,0.03
2019-02-08T22:48:27.765Z,-0.04
2019-02-08T22:51:01.021Z,-0.02
2019-02-08T22:53:36.818Z,-0.06
2019-02-08T22:56:08.990Z,-0.03
2019-02-08T22:58:43.448Z,-0.05
2019-02-08T23:01:31.975Z,-0.06
2019-02-08T23:04:05.007Z,-0.05
2019-02-08T23:06:44.471Z,-0.04
2019-02-08T23:09:20.861Z,-0.18
2019-02-08T23:11:54.195Z,-0.25
2019-02-08T23:14:28.213Z,-0.23
2019-02-08T23:17:02.152Z,-0.20
2019-02-08T23:19:36.128Z,-0.19
2019-02-08T23:22:10.148Z,-0.25
2019-02-08T23:24:42.948Z,-0.29
2019-02-08T23:27:15.215Z,-0.38
2019-02-08T23:29:50.675Z,-0.48
2019-02-08T23:32:23.261Z,-0.31
2019-02-08T23:34:54.495Z,-0.45
2019-02-08T23:37:26.462Z,-0.43
2019-02-08T23:39:59.241Z,-0.37
2019-02-08T23:42:32.209Z,-0.36
2019-02-08T23:45:06.647Z,-0.39
2019-02-08T23:47:38.493Z,-0.40
2019-02-08T23:50:13.975Z,-0.36
2019-02-08T23:52:47.367Z,-0.47
2019-02-08T23:55:20.539Z,-0.46
2019-02-08T23:57:54.069Z,-0.46
